sensor_id;sensor_type;location;lat;lon;timestamp;temperature;humidity
66598;DHT22;57424;53.128;6.406;2024-03-08T00:01:12;10.60;64.30
66598;DHT22;57424;53.128;6.406;2024-03-08T00:03:38;10.60;64.30
66598;DHT22;57424;53.128;6.406;2024-03-08T00:06:05;10.60;64.30
66598;DHT22;57424;53.128;6.406;2024-03-08T00:08:31;10.60;64.40
66598;DHT22;57424;53.128;6.406;2024-03-08T00:10:57;10.60;64.30
66598;DHT22;57424;53.128;6.406;2024-03-08T00:13:22;10.60;64.40
66598;DHT22;57424;53.128;6.406;2024-03-08T00:15:50;10.60;64.40
66598;DHT22;57424;53.128;6.406;2024-03-08T00:18:16;10.50;64.30
66598;DHT22;57424;53.128;6.406;2024-03-08T00:20:42;10.60;64.30
66598;DHT22;57424;53.128;6.406;2024-03-08T00:23:09;10.60;64.40
66598;DHT22;57424;53.128;6.406;2024-03-08T00:25:36;10.50;64.30
66598;DHT22;57424;53.128;6.406;2024-03-08T00:28:02;10.50;64.40
66598;DHT22;57424;53.128;6.406;2024-03-08T00:30:27;10.50;64.30
66598;DHT22;57424;53.128;6.406;2024-03-08T00:32:53;10.50;64.30
66598;DHT22;57424;53.128;6.406;2024-03-08T00:35:18;10.50;64.30
66598;DHT22;57424;53.128;6.406;2024-03-08T00:37:44;10.50;64.30
66598;DHT22;57424;53.128;6.406;2024-03-08T00:40:13;10.50;64.30
66598;DHT22;57424;53.128;6.406;2024-03-08T00:42:38;10.40;64.30
66598;DHT22;57424;53.128;6.406;2024-03-08T00:45:06;10.50;64.30
66598;DHT22;57424;53.128;6.406;2024-03-08T00:47:32;10.50;64.30
66598;DHT22;57424;53.128;6.406;2024-03-08T00:49:58;10.40;64.30
66598;DHT22;57424;53.128;6.406;2024-03-08T00:52:24;10.40;64.30
66598;DHT22;57424;53.128;6.406;2024-03-08T00:54:50;10.40;64.30
66598;DHT22;57424;53.128;6.406;2024-03-08T00:57:15;10.40;64.30
66598;DHT22;57424;53.128;6.406;2024-03-08T00:59:41;10.40;64.30
66598;DHT22;57424;53.128;6.406;2024-03-08T01:02:06;10.40;64.30
66598;DHT22;57424;53.128;6.406;2024-03-08T01:04:34;10.40;64.40
66598;DHT22;57424;53.128;6.406;2024-03-08T01:07:00;10.40;64.40
66598;DHT22;57424;53.128;6.406;2024-03-08T01:09:26;10.40;64.40
66598;DHT22;57424;53.128;6.406;2024-03-08T01:11:52;10.30;64.30
66598;DHT22;57424;53.128;6.406;2024-03-08T01:14:20;10.30;64.30
66598;DHT22;57424;53.128;6.406;2024-03-08T01:16:48;10.30;64.20
66598;DHT22;57424;53.128;6.406;2024-03-08T01:19:14;10.30;64.20
66598;DHT22;57424;53.128;6.406;2024-03-08T01:21:40;10.30;64.30
66598;DHT22;57424;53.128;6.406;2024-03-08T01:24:06;10.30;64.30
66598;DHT22;57424;53.128;6.406;2024-03-08T01:26:32;10.20;64.30
66598;DHT22;57424;53.128;6.406;2024-03-08T01:29:00;10.30;64.30
66598;DHT22;57424;53.128;6.406;2024-03-08T01:31:25;10.30;64.30
66598;DHT22;57424;53.128;6.406;2024-03-08T01:33:51;10.30;64.30
66598;DHT22;57424;53.128;6.406;2024-03-08T01:36:16;10.20;64.30
66598;DHT22;57424;53.128;6.406;2024-03-08T01:38:44;10.30;64.30
66598;DHT22;57424;53.128;6.406;2024-03-08T01:41:10;10.20;64.30
66598;DHT22;57424;53.128;6.406;2024-03-08T01:43:35;10.20;64.20
66598;DHT22;57424;53.128;6.406;2024-03-08T01:46:01;10.20;64.20
66598;DHT22;57424;53.128;6.406;2024-03-08T01:48:30;10.20;64.20
66598;DHT22;57424;53.128;6.406;2024-03-08T01:50:57;10.20;64.20
66598;DHT22;57424;53.128;6.406;2024-03-08T01:53:24;10.10;64.20
66598;DHT22;57424;53.128;6.406;2024-03-08T01:55:53;10.20;64.20
66598;DHT22;57424;53.128;6.406;2024-03-08T01:58:22;10.20;64.20
66598;DHT22;57424;53.128;6.406;2024-03-08T02:00:48;10.20;64.20
66598;DHT22;57424;53.128;6.406;2024-03-08T02:03:15;10.20;64.20
66598;DHT22;57424;53.128;6.406;2024-03-08T02:05:41;10.10;64.10
66598;DHT22;57424;53.128;6.406;2024-03-08T02:08:08;10.10;64.10
66598;DHT22;57424;53.128;6.406;2024-03-08T02:10:38;10.10;64.20
66598;DHT22;57424;53.128;6.406;2024-03-08T02:13:04;10.10;64.10
66598;DHT22;57424;53.128;6.406;2024-03-08T02:15:59;10.10;64.10
66598;DHT22;57424;53.128;6.406;2024-03-08T02:18:26;10.10;64.10
66598;DHT22;57424;53.128;6.406;2024-03-08T02:20:53;10.10;64.10
66598;DHT22;57424;53.128;6.406;2024-03-08T02:23:19;10.10;64.10
66598;DHT22;57424;53.128;6.406;2024-03-08T02:25:45;10.10;64.00
66598;DHT22;57424;53.128;6.406;2024-03-08T02:28:12;10.10;64.00
66598;DHT22;57424;53.128;6.406;2024-03-08T02:30:38;10.00;64.00
66598;DHT22;57424;53.128;6.406;2024-03-08T02:33:05;10.00;64.00
66598;DHT22;57424;53.128;6.406;2024-03-08T02:35:31;10.00;64.00
66598;DHT22;57424;53.128;6.406;2024-03-08T02:37:56;10.00;64.00
66598;DHT22;57424;53.128;6.406;2024-03-08T02:40:22;10.00;64.00
66598;DHT22;57424;53.128;6.406;2024-03-08T02:42:47;10.00;64.00
66598;DHT22;57424;53.128;6.406;2024-03-08T02:45:13;10.00;64.60
66598;DHT22;57424;53.128;6.406;2024-03-08T02:47:39;9.90;63.90
66598;DHT22;57424;53.128;6.406;2024-03-08T02:50:05;9.90;63.90
66598;DHT22;57424;53.128;6.406;2024-03-08T02:52:33;10.00;64.00
66598;DHT22;57424;53.128;6.406;2024-03-08T02:54:59;10.00;63.90
66598;DHT22;57424;53.128;6.406;2024-03-08T02:57:24;9.90;63.90
66598;DHT22;57424;53.128;6.406;2024-03-08T02:59:50;9.90;63.80
66598;DHT22;57424;53.128;6.406;2024-03-08T03:02:16;9.90;63.80
66598;DHT22;57424;53.128;6.406;2024-03-08T03:04:42;9.90;63.90
66598;DHT22;57424;53.128;6.406;2024-03-08T03:07:08;9.90;63.80
66598;DHT22;57424;53.128;6.406;2024-03-08T03:09:34;9.90;63.80
66598;DHT22;57424;53.128;6.406;2024-03-08T03:11:59;9.90;63.90
66598;DHT22;57424;53.128;6.406;2024-03-08T03:14:25;9.90;63.90
66598;DHT22;57424;53.128;6.406;2024-03-08T03:16:52;9.80;63.80
66598;DHT22;57424;53.128;6.406;2024-03-08T03:19:18;9.80;63.80
66598;DHT22;57424;53.128;6.406;2024-03-08T03:21:43;9.80;63.80
66598;DHT22;57424;53.128;6.406;2024-03-08T03:24:09;9.80;63.90
66598;DHT22;57424;53.128;6.406;2024-03-08T03:26:38;9.80;64.00
66598;DHT22;57424;53.128;6.406;2024-03-08T03:29:07;9.80;64.00
66598;DHT22;57424;53.128;6.406;2024-03-08T03:31:35;9.80;64.00
66598;DHT22;57424;53.128;6.406;2024-03-08T03:34:02;9.80;64.00
66598;DHT22;57424;53.128;6.406;2024-03-08T03:36:29;9.80;64.00
66598;DHT22;57424;53.128;6.406;2024-03-08T03:38:55;9.80;63.90
66598;DHT22;57424;53.128;6.406;2024-03-08T03:41:31;9.80;63.90
66598;DHT22;57424;53.128;6.406;2024-03-08T03:43:57;9.80;64.00
66598;DHT22;57424;53.128;6.406;2024-03-08T03:46:23;9.80;64.00
66598;DHT22;57424;53.128;6.406;2024-03-08T03:48:48;9.80;64.00
66598;DHT22;57424;53.128;6.406;2024-03-08T03:51:14;9.80;64.00
66598;DHT22;57424;53.128;6.406;2024-03-08T03:53:40;9.80;64.00
66598;DHT22;57424;53.128;6.406;2024-03-08T03:56:07;9.70;64.00
66598;DHT22;57424;53.128;6.406;2024-03-08T03:58:33;9.80;64.00
66598;DHT22;57424;53.128;6.406;2024-03-08T04:00:58;9.80;64.00
66598;DHT22;57424;53.128;6.406;2024-03-08T04:03:24;9.80;64.00
66598;DHT22;57424;53.128;6.406;2024-03-08T04:05:50;9.70;63.90
66598;DHT22;57424;53.128;6.406;2024-03-08T04:08:16;9.70;63.90
66598;DHT22;57424;53.128;6.406;2024-03-08T04:10:42;9.70;63.90
66598;DHT22;57424;53.128;6.406;2024-03-08T04:13:08;9.70;63.90
66598;DHT22;57424;53.128;6.406;2024-03-08T04:15:35;9.70;63.90
66598;DHT22;57424;53.128;6.406;2024-03-08T04:18:00;9.70;63.90
66598;DHT22;57424;53.128;6.406;2024-03-08T04:20:26;9.70;64.00
66598;DHT22;57424;53.128;6.406;2024-03-08T04:22:51;9.70;64.00
66598;DHT22;57424;53.128;6.406;2024-03-08T04:25:17;9.70;63.90
66598;DHT22;57424;53.128;6.406;2024-03-08T04:27:43;9.70;63.80
66598;DHT22;57424;53.128;6.406;2024-03-08T04:30:10;9.70;63.80
66598;DHT22;57424;53.128;6.406;2024-03-08T04:32:36;9.70;63.90
66598;DHT22;57424;53.128;6.406;2024-03-08T04:35:01;9.70;63.90
66598;DHT22;57424;53.128;6.406;2024-03-08T04:37:28;9.70;63.80
66598;DHT22;57424;53.128;6.406;2024-03-08T04:39:57;9.70;63.80
66598;DHT22;57424;53.128;6.406;2024-03-08T04:42:23;9.60;63.80
66598;DHT22;57424;53.128;6.406;2024-03-08T04:44:49;9.60;63.80
66598;DHT22;57424;53.128;6.406;2024-03-08T04:47:14;9.60;63.90
66598;DHT22;57424;53.128;6.406;2024-03-08T04:49:41;9.60;63.90
66598;DHT22;57424;53.128;6.406;2024-03-08T04:52:07;9.60;63.90
66598;DHT22;57424;53.128;6.406;2024-03-08T04:54:32;9.60;63.90
66598;DHT22;57424;53.128;6.406;2024-03-08T04:56:58;9.60;63.80
66598;DHT22;57424;53.128;6.406;2024-03-08T04:59:27;9.60;63.80
66598;DHT22;57424;53.128;6.406;2024-03-08T05:01:53;9.60;63.90
66598;DHT22;57424;53.128;6.406;2024-03-08T05:04:18;9.60;63.90
66598;DHT22;57424;53.128;6.406;2024-03-08T05:06:44;9.60;63.80
66598;DHT22;57424;53.128;6.406;2024-03-08T05:09:09;9.60;63.70
66598;DHT22;57424;53.128;6.406;2024-03-08T05:11:45;9.60;63.70
66598;DHT22;57424;53.128;6.406;2024-03-08T05:14:11;9.60;63.70
66598;DHT22;57424;53.128;6.406;2024-03-08T05:16:44;9.60;63.70
66598;DHT22;57424;53.128;6.406;2024-03-08T05:19:17;9.60;63.70
66598;DHT22;57424;53.128;6.406;2024-03-08T05:21:47;9.60;63.70
66598;DHT22;57424;53.128;6.406;2024-03-08T05:24:13;9.60;63.70
66598;DHT22;57424;53.128;6.406;2024-03-08T05:26:40;9.60;63.70
66598;DHT22;57424;53.128;6.406;2024-03-08T05:29:05;9.60;63.70
66598;DHT22;57424;53.128;6.406;2024-03-08T05:31:49;9.60;63.70
66598;DHT22;57424;53.128;6.406;2024-03-08T05:34:16;9.50;63.70
66598;DHT22;57424;53.128;6.406;2024-03-08T05:36:42;9.60;63.70
66598;DHT22;57424;53.128;6.406;2024-03-08T05:39:12;9.60;63.70
66598;DHT22;57424;53.128;6.406;2024-03-08T05:41:41;9.60;63.60
66598;DHT22;57424;53.128;6.406;2024-03-08T05:44:06;9.60;63.50
66598;DHT22;57424;53.128;6.406;2024-03-08T05:46:33;9.60;63.60
66598;DHT22;57424;53.128;6.406;2024-03-08T05:48:58;9.60;64.20
66598;DHT22;57424;53.128;6.406;2024-03-08T05:51:25;9.60;63.50
66598;DHT22;57424;53.128;6.406;2024-03-08T05:53:53;9.60;63.50
66598;DHT22;57424;53.128;6.406;2024-03-08T05:56:19;9.50;63.40
66598;DHT22;57424;53.128;6.406;2024-03-08T05:58:44;9.60;63.40
66598;DHT22;57424;53.128;6.406;2024-03-08T06:01:11;9.60;63.40
66598;DHT22;57424;53.128;6.406;2024-03-08T06:03:38;9.60;63.40
66598;DHT22;57424;53.128;6.406;2024-03-08T06:06:13;9.60;63.40
66598;DHT22;57424;53.128;6.406;2024-03-08T06:08:39;9.60;63.40
66598;DHT22;57424;53.128;6.406;2024-03-08T06:11:05;9.50;63.40
66598;DHT22;57424;53.128;6.406;2024-03-08T06:13:34;9.50;63.40
66598;DHT22;57424;53.128;6.406;2024-03-08T06:16:00;9.60;63.50
66598;DHT22;57424;53.128;6.406;2024-03-08T06:18:36;9.60;63.40
66598;DHT22;57424;53.128;6.406;2024-03-08T06:21:03;9.60;63.40
66598;DHT22;57424;53.128;6.406;2024-03-08T06:23:33;9.50;63.40
66598;DHT22;57424;53.128;6.406;2024-03-08T06:25:59;9.50;63.30
66598;DHT22;57424;53.128;6.406;2024-03-08T06:28:24;9.50;63.30
66598;DHT22;57424;53.128;6.406;2024-03-08T06:30:50;9.60;63.30
66598;DHT22;57424;53.128;6.406;2024-03-08T06:33:17;9.60;63.30
66598;DHT22;57424;53.128;6.406;2024-03-08T06:35:42;9.60;63.30
66598;DHT22;57424;53.128;6.406;2024-03-08T06:38:08;9.60;63.30
66598;DHT22;57424;53.128;6.406;2024-03-08T06:40:34;9.60;63.30
66598;DHT22;57424;53.128;6.406;2024-03-08T06:42:59;9.60;63.30
66598;DHT22;57424;53.128;6.406;2024-03-08T06:45:25;9.60;63.30
66598;DHT22;57424;53.128;6.406;2024-03-08T06:47:51;9.60;63.20
66598;DHT22;57424;53.128;6.406;2024-03-08T06:50:17;9.60;63.20
66598;DHT22;57424;53.128;6.406;2024-03-08T06:52:43;9.60;63.30
66598;DHT22;57424;53.128;6.406;2024-03-08T06:55:09;9.60;63.30
66598;DHT22;57424;53.128;6.406;2024-03-08T06:57:42;9.60;63.30
66598;DHT22;57424;53.128;6.406;2024-03-08T07:00:08;9.60;63.30
66598;DHT22;57424;53.128;6.406;2024-03-08T07:02:44;9.70;63.50
66598;DHT22;57424;53.128;6.406;2024-03-08T07:05:11;9.60;63.60
66598;DHT22;57424;53.128;6.406;2024-03-08T07:07:37;9.70;64.30
66598;DHT22;57424;53.128;6.406;2024-03-08T07:10:03;9.70;63.60
66598;DHT22;57424;53.128;6.406;2024-03-08T07:12:29;9.70;63.50
66598;DHT22;57424;53.128;6.406;2024-03-08T07:14:55;9.70;63.40
66598;DHT22;57424;53.128;6.406;2024-03-08T07:17:21;9.70;63.40
66598;DHT22;57424;53.128;6.406;2024-03-08T07:19:46;9.70;63.40
66598;DHT22;57424;53.128;6.406;2024-03-08T07:22:12;9.70;63.50
66598;DHT22;57424;53.128;6.406;2024-03-08T07:24:37;9.80;63.60
66598;DHT22;57424;53.128;6.406;2024-03-08T07:27:04;9.80;63.50
66598;DHT22;57424;53.128;6.406;2024-03-08T07:29:31;9.80;63.40
66598;DHT22;57424;53.128;6.406;2024-03-08T07:31:56;9.80;63.40
66598;DHT22;57424;53.128;6.406;2024-03-08T07:34:28;9.80;63.40
66598;DHT22;57424;53.128;6.406;2024-03-08T07:36:57;9.80;63.40
66598;DHT22;57424;53.128;6.406;2024-03-08T07:39:23;9.90;63.40
66598;DHT22;57424;53.128;6.406;2024-03-08T07:41:49;9.90;63.30
66598;DHT22;57424;53.128;6.406;2024-03-08T07:44:18;9.90;63.40
66598;DHT22;57424;53.128;6.406;2024-03-08T07:46:44;9.90;63.50
66598;DHT22;57424;53.128;6.406;2024-03-08T07:49:09;9.90;63.50
66598;DHT22;57424;53.128;6.406;2024-03-08T07:51:37;10.00;63.70
66598;DHT22;57424;53.128;6.406;2024-03-08T07:54:03;10.00;63.60
66598;DHT22;57424;53.128;6.406;2024-03-08T07:56:34;10.00;63.50
66598;DHT22;57424;53.128;6.406;2024-03-08T07:59:02;10.10;63.60
66598;DHT22;57424;53.128;6.406;2024-03-08T08:01:29;10.10;63.60
66598;DHT22;57424;53.128;6.406;2024-03-08T08:03:56;10.10;63.70
66598;DHT22;57424;53.128;6.406;2024-03-08T08:06:22;10.10;63.90
66598;DHT22;57424;53.128;6.406;2024-03-08T08:08:47;10.20;63.90
66598;DHT22;57424;53.128;6.406;2024-03-08T08:11:13;10.20;63.90
66598;DHT22;57424;53.128;6.406;2024-03-08T08:13:42;10.20;63.90
66598;DHT22;57424;53.128;6.406;2024-03-08T08:16:09;10.20;63.80
66598;DHT22;57424;53.128;6.406;2024-03-08T08:18:34;10.30;63.80
66598;DHT22;57424;53.128;6.406;2024-03-08T08:21:01;10.30;63.80
66598;DHT22;57424;53.128;6.406;2024-03-08T08:23:26;10.30;63.90
66598;DHT22;57424;53.128;6.406;2024-03-08T08:25:52;10.40;64.10
66598;DHT22;57424;53.128;6.406;2024-03-08T08:28:18;10.40;64.20
66598;DHT22;57424;53.128;6.406;2024-03-08T08:30:44;10.50;64.00
66598;DHT22;57424;53.128;6.406;2024-03-08T08:33:10;10.50;64.10
66598;DHT22;57424;53.128;6.406;2024-03-08T08:35:39;10.50;64.40
66598;DHT22;57424;53.128;6.406;2024-03-08T08:38:05;10.60;64.40
66598;DHT22;57424;53.128;6.406;2024-03-08T08:40:30;10.60;64.40
66598;DHT22;57424;53.128;6.406;2024-03-08T08:42:58;10.70;64.40
66598;DHT22;57424;53.128;6.406;2024-03-08T08:45:23;10.70;64.40
66598;DHT22;57424;53.128;6.406;2024-03-08T08:47:49;10.80;64.60
66598;DHT22;57424;53.128;6.406;2024-03-08T08:50:15;10.90;65.00
66598;DHT22;57424;53.128;6.406;2024-03-08T08:52:42;11.00;65.20
66598;DHT22;57424;53.128;6.406;2024-03-08T08:55:09;11.00;65.20
66598;DHT22;57424;53.128;6.406;2024-03-08T08:57:38;11.00;65.00
66598;DHT22;57424;53.128;6.406;2024-03-08T09:00:05;11.10;64.90
66598;DHT22;57424;53.128;6.406;2024-03-08T09:02:33;11.10;64.90
66598;DHT22;57424;53.128;6.406;2024-03-08T09:04:58;11.20;64.90
66598;DHT22;57424;53.128;6.406;2024-03-08T09:07:24;11.30;65.10
66598;DHT22;57424;53.128;6.406;2024-03-08T09:09:49;11.40;65.00
66598;DHT22;57424;53.128;6.406;2024-03-08T09:12:15;11.40;64.80
66598;DHT22;57424;53.128;6.406;2024-03-08T09:14:41;11.50;64.70
66598;DHT22;57424;53.128;6.406;2024-03-08T09:17:08;11.60;64.70
66598;DHT22;57424;53.128;6.406;2024-03-08T09:19:34;11.70;64.70
66598;DHT22;57424;53.128;6.406;2024-03-08T09:22:00;11.80;64.70
66598;DHT22;57424;53.128;6.406;2024-03-08T09:24:25;11.90;65.20
66598;DHT22;57424;53.128;6.406;2024-03-08T09:26:51;12.00;64.50
66598;DHT22;57424;53.128;6.406;2024-03-08T09:29:17;12.00;64.30
66598;DHT22;57424;53.128;6.406;2024-03-08T09:31:43;12.10;64.50
66598;DHT22;57424;53.128;6.406;2024-03-08T09:34:08;12.20;64.80
66598;DHT22;57424;53.128;6.406;2024-03-08T09:36:34;12.30;65.20
66598;DHT22;57424;53.128;6.406;2024-03-08T09:39:00;12.40;64.70
66598;DHT22;57424;53.128;6.406;2024-03-08T09:41:26;12.50;65.50
66598;DHT22;57424;53.128;6.406;2024-03-08T09:43:52;12.60;65.10
66598;DHT22;57424;53.128;6.406;2024-03-08T09:46:19;12.70;65.40
66598;DHT22;57424;53.128;6.406;2024-03-08T09:48:45;12.70;66.00
66598;DHT22;57424;53.128;6.406;2024-03-08T09:51:12;12.80;66.70
66598;DHT22;57424;53.128;6.406;2024-03-08T09:53:41;12.90;67.10
66598;DHT22;57424;53.128;6.406;2024-03-08T09:56:09;13.00;67.10
66598;DHT22;57424;53.128;6.406;2024-03-08T09:58:37;13.10;67.20
66598;DHT22;57424;53.128;6.406;2024-03-08T10:01:19;13.20;67.20
66598;DHT22;57424;53.128;6.406;2024-03-08T10:03:47;13.30;67.40
66598;DHT22;57424;53.128;6.406;2024-03-08T10:06:13;13.40;67.40
66598;DHT22;57424;53.128;6.406;2024-03-08T10:08:39;13.50;67.60
66598;DHT22;57424;53.128;6.406;2024-03-08T10:11:05;13.60;67.50
66598;DHT22;57424;53.128;6.406;2024-03-08T10:13:31;13.70;67.60
66598;DHT22;57424;53.128;6.406;2024-03-08T10:15:58;13.80;67.70
66598;DHT22;57424;53.128;6.406;2024-03-08T10:18:23;13.90;67.70
66598;DHT22;57424;53.128;6.406;2024-03-08T10:21:06;14.00;67.70
66598;DHT22;57424;53.128;6.406;2024-03-08T10:23:33;14.10;67.70
66598;DHT22;57424;53.128;6.406;2024-03-08T10:26:09;14.10;67.90
66598;DHT22;57424;53.128;6.406;2024-03-08T10:28:35;14.30;67.90
66598;DHT22;57424;53.128;6.406;2024-03-08T10:31:00;14.30;67.90
66598;DHT22;57424;53.128;6.406;2024-03-08T10:33:26;14.40;68.00
66598;DHT22;57424;53.128;6.406;2024-03-08T10:35:52;14.50;68.20
66598;DHT22;57424;53.128;6.406;2024-03-08T10:38:20;14.60;68.20
66598;DHT22;57424;53.128;6.406;2024-03-08T10:40:48;14.60;68.00
66598;DHT22;57424;53.128;6.406;2024-03-08T10:43:24;14.70;67.80
66598;DHT22;57424;53.128;6.406;2024-03-08T10:48:49;14.80;68.20
66598;DHT22;57424;53.128;6.406;2024-03-08T10:51:15;14.90;68.70
66598;DHT22;57424;53.128;6.406;2024-03-08T10:53:41;14.90;68.90
66598;DHT22;57424;53.128;6.406;2024-03-08T10:56:07;15.00;69.00
66598;DHT22;57424;53.128;6.406;2024-03-08T10:58:36;15.00;69.30
66598;DHT22;57424;53.128;6.406;2024-03-08T11:01:02;15.20;69.60
66598;DHT22;57424;53.128;6.406;2024-03-08T11:06:41;15.30;69.60
66598;DHT22;57424;53.128;6.406;2024-03-08T11:09:30;15.40;69.60
66598;DHT22;57424;53.128;6.406;2024-03-08T11:12:18;15.50;69.60
66598;DHT22;57424;53.128;6.406;2024-03-08T11:14:49;15.60;69.50
66598;DHT22;57424;53.128;6.406;2024-03-08T11:17:44;15.60;70.00
66598;DHT22;57424;53.128;6.406;2024-03-08T11:22:42;15.80;70.20
66598;DHT22;57424;53.128;6.406;2024-03-08T11:28:11;15.90;69.00
66598;DHT22;57424;53.128;6.406;2024-03-08T11:33:28;16.00;68.80
66598;DHT22;57424;53.128;6.406;2024-03-08T11:36:19;16.10;68.80
66598;DHT22;57424;53.128;6.406;2024-03-08T11:38:48;16.10;68.40
66598;DHT22;57424;53.128;6.406;2024-03-08T11:41:18;16.20;68.50
66598;DHT22;57424;53.128;6.406;2024-03-08T11:43:45;16.20;68.10
66598;DHT22;57424;53.128;6.406;2024-03-08T11:46:12;16.30;67.80
66598;DHT22;57424;53.128;6.406;2024-03-08T11:48:41;16.30;67.50
66598;DHT22;57424;53.128;6.406;2024-03-08T11:51:14;16.40;67.20
66598;DHT22;57424;53.128;6.406;2024-03-08T11:53:40;16.40;67.10
66598;DHT22;57424;53.128;6.406;2024-03-08T11:56:13;16.50;67.00
66598;DHT22;57424;53.128;6.406;2024-03-08T11:58:40;16.50;66.90
66598;DHT22;57424;53.128;6.406;2024-03-08T12:01:07;16.60;66.90
66598;DHT22;57424;53.128;6.406;2024-03-08T12:03:34;16.70;66.90
66598;DHT22;57424;53.128;6.406;2024-03-08T12:06:01;16.70;66.70
66598;DHT22;57424;53.128;6.406;2024-03-08T12:08:27;16.80;66.50
66598;DHT22;57424;53.128;6.406;2024-03-08T12:10:56;16.90;66.50
66598;DHT22;57424;53.128;6.406;2024-03-08T12:13:30;17.00;66.60
66598;DHT22;57424;53.128;6.406;2024-03-08T12:16:00;17.10;66.40
66598;DHT22;57424;53.128;6.406;2024-03-08T12:18:32;17.10;66.10
66598;DHT22;57424;53.128;6.406;2024-03-08T12:21:06;17.20;65.90
66598;DHT22;57424;53.128;6.406;2024-03-08T12:23:36;17.20;65.60
66598;DHT22;57424;53.128;6.406;2024-03-08T12:26:24;17.30;65.60
66598;DHT22;57424;53.128;6.406;2024-03-08T12:28:51;17.40;65.30
66598;DHT22;57424;53.128;6.406;2024-03-08T12:31:17;17.50;65.30
66598;DHT22;57424;53.128;6.406;2024-03-08T12:33:53;17.50;65.00
66598;DHT22;57424;53.128;6.406;2024-03-08T12:36:20;17.60;64.70
66598;DHT22;57424;53.128;6.406;2024-03-08T12:38:46;17.60;64.70
66598;DHT22;57424;53.128;6.406;2024-03-08T12:41:17;17.60;65.50
66598;DHT22;57424;53.128;6.406;2024-03-08T12:43:44;17.70;65.80
66598;DHT22;57424;53.128;6.406;2024-03-08T12:46:20;17.70;65.20
66598;DHT22;57424;53.128;6.406;2024-03-08T12:48:46;17.80;65.20
66598;DHT22;57424;53.128;6.406;2024-03-08T12:51:17;17.80;65.10
66598;DHT22;57424;53.128;6.406;2024-03-08T12:53:46;17.90;65.00
66598;DHT22;57424;53.128;6.406;2024-03-08T12:56:29;17.90;64.90
66598;DHT22;57424;53.128;6.406;2024-03-08T12:58:54;17.90;64.80
66598;DHT22;57424;53.128;6.406;2024-03-08T13:01:23;18.00;64.80
66598;DHT22;57424;53.128;6.406;2024-03-08T13:03:49;18.00;64.70
66598;DHT22;57424;53.128;6.406;2024-03-08T13:06:20;18.00;64.50
66598;DHT22;57424;53.128;6.406;2024-03-08T13:08:50;18.10;64.40
66598;DHT22;57424;53.128;6.406;2024-03-08T13:11:16;18.10;64.30
66598;DHT22;57424;53.128;6.406;2024-03-08T13:13:43;18.20;64.00
66598;DHT22;57424;53.128;6.406;2024-03-08T13:16:10;18.20;64.00
66598;DHT22;57424;53.128;6.406;2024-03-08T13:18:37;18.20;64.00
66598;DHT22;57424;53.128;6.406;2024-03-08T13:21:03;18.20;63.90
66598;DHT22;57424;53.128;6.406;2024-03-08T13:23:36;18.20;63.70
66598;DHT22;57424;53.128;6.406;2024-03-08T13:26:05;18.30;63.80
66598;DHT22;57424;53.128;6.406;2024-03-08T13:28:32;18.30;63.60
66598;DHT22;57424;53.128;6.406;2024-03-08T13:31:05;18.40;63.40
66598;DHT22;57424;53.128;6.406;2024-03-08T13:33:38;18.40;63.10
66598;DHT22;57424;53.128;6.406;2024-03-08T13:36:12;18.40;62.90
66598;DHT22;57424;53.128;6.406;2024-03-08T13:38:45;18.40;62.50
66598;DHT22;57424;53.128;6.406;2024-03-08T13:41:12;18.40;62.30
66598;DHT22;57424;53.128;6.406;2024-03-08T13:43:43;18.50;62.20
66598;DHT22;57424;53.128;6.406;2024-03-08T13:46:09;18.50;62.10
66598;DHT22;57424;53.128;6.406;2024-03-08T13:48:36;18.50;62.00
66598;DHT22;57424;53.128;6.406;2024-03-08T13:51:07;18.50;61.90
66598;DHT22;57424;53.128;6.406;2024-03-08T13:53:33;18.50;61.90
66598;DHT22;57424;53.128;6.406;2024-03-08T13:56:03;18.50;61.70
66598;DHT22;57424;53.128;6.406;2024-03-08T13:58:29;18.50;61.50
66598;DHT22;57424;53.128;6.406;2024-03-08T14:00:54;18.50;61.40
66598;DHT22;57424;53.128;6.406;2024-03-08T14:03:21;18.50;61.30
66598;DHT22;57424;53.128;6.406;2024-03-08T14:05:46;18.50;61.30
66598;DHT22;57424;53.128;6.406;2024-03-08T14:08:12;18.50;61.30
66598;DHT22;57424;53.128;6.406;2024-03-08T14:10:38;18.50;61.20
66598;DHT22;57424;53.128;6.406;2024-03-08T14:13:04;18.50;61.30
66598;DHT22;57424;53.128;6.406;2024-03-08T14:15:33;18.40;61.30
66598;DHT22;57424;53.128;6.406;2024-03-08T14:18:07;18.40;61.00
66598;DHT22;57424;53.128;6.406;2024-03-08T14:20:32;18.40;61.10
66598;DHT22;57424;53.128;6.406;2024-03-08T14:22:58;18.40;61.10
66598;DHT22;57424;53.128;6.406;2024-03-08T14:25:24;18.30;61.00
66598;DHT22;57424;53.128;6.406;2024-03-08T14:27:51;18.30;60.90
66598;DHT22;57424;53.128;6.406;2024-03-08T14:30:23;18.30;61.20
66598;DHT22;57424;53.128;6.406;2024-03-08T14:33:04;18.20;61.20
66598;DHT22;57424;53.128;6.406;2024-03-08T14:35:37;18.20;61.20
66598;DHT22;57424;53.128;6.406;2024-03-08T14:38:04;18.20;61.20
66598;DHT22;57424;53.128;6.406;2024-03-08T14:40:30;18.20;60.90
66598;DHT22;57424;53.128;6.406;2024-03-08T14:42:56;18.20;61.10
66598;DHT22;57424;53.128;6.406;2024-03-08T14:45:21;18.10;61.00
66598;DHT22;57424;53.128;6.406;2024-03-08T14:47:49;18.10;61.20
66598;DHT22;57424;53.128;6.406;2024-03-08T14:50:21;18.10;61.10
66598;DHT22;57424;53.128;6.406;2024-03-08T14:52:48;18.10;61.00
66598;DHT22;57424;53.128;6.406;2024-03-08T14:55:17;18.10;60.90
66598;DHT22;57424;53.128;6.406;2024-03-08T14:57:45;18.00;61.00
66598;DHT22;57424;53.128;6.406;2024-03-08T15:00:12;18.00;61.00
66598;DHT22;57424;53.128;6.406;2024-03-08T15:02:45;18.00;60.80
66598;DHT22;57424;53.128;6.406;2024-03-08T15:05:13;18.00;60.90
66598;DHT22;57424;53.128;6.406;2024-03-08T15:07:39;17.90;61.10
66598;DHT22;57424;53.128;6.406;2024-03-08T15:10:07;17.90;61.20
66598;DHT22;57424;53.128;6.406;2024-03-08T15:12:39;17.90;61.10
66598;DHT22;57424;53.128;6.406;2024-03-08T15:15:07;17.80;60.90
66598;DHT22;57424;53.128;6.406;2024-03-08T15:17:34;17.90;61.00
66598;DHT22;57424;53.128;6.406;2024-03-08T15:20:00;17.80;60.90
66598;DHT22;57424;53.128;6.406;2024-03-08T15:22:26;17.80;60.80
66598;DHT22;57424;53.128;6.406;2024-03-08T15:24:52;17.80;60.70
66598;DHT22;57424;53.128;6.406;2024-03-08T15:27:18;17.80;60.70
66598;DHT22;57424;53.128;6.406;2024-03-08T15:29:44;17.80;60.70
66598;DHT22;57424;53.128;6.406;2024-03-08T15:32:14;17.80;60.60
66598;DHT22;57424;53.128;6.406;2024-03-08T15:34:45;17.80;60.40
66598;DHT22;57424;53.128;6.406;2024-03-08T15:37:11;17.70;60.20
66598;DHT22;57424;53.128;6.406;2024-03-08T15:39:41;17.70;60.20
66598;DHT22;57424;53.128;6.406;2024-03-08T15:42:08;17.70;60.00
66598;DHT22;57424;53.128;6.406;2024-03-08T15:44:37;17.70;60.00
66598;DHT22;57424;53.128;6.406;2024-03-08T15:47:04;17.70;60.20
66598;DHT22;57424;53.128;6.406;2024-03-08T15:49:32;17.60;60.00
66598;DHT22;57424;53.128;6.406;2024-03-08T15:51:58;17.60;60.00